Leandra — V2EB4 — position and weather

sailwx.info

Track history (hours):
 
Tides and Currents Weather Stations Pressure Air Temp Water Temp Dewpoint Dewpoint Depression Visibility Wind Speed Wind Dir Waves Ship Positions

Leandra

Last reported at 2018-Jan-19 10:31 UTC. Time now 2018-Jan-21 16:40 UTC.
Position N 62°10' E 004°28'.

Length 146 m; draft 7.6 m.

Type: Ship (hazmat cat A). MMSI: 305375000.

Date/timePositionNaut miles runAvg speedWind from/ knotsBaromVisibWave heightAir tempDewpointWater temp
2018-Jan-19 10:31N 62°10' E 004°28'010.9
2018-Jan-19 10:30N 62°11' E 004°28'510.6
2018-Jan-19 10:00N 62°14' E 004°37'510.8
2018-Jan-19 09:30N 62°17' E 004°46'511.0
2018-Jan-19 09:00N 62°21' E 004°55'510.5
2018-Jan-19 08:30N 62°25' E 005°03'511.1
2018-Jan-19 08:00N 62°28' E 005°12'611.2
2018-Jan-19 07:30N 62°32' E 005°22'611.2
2018-Jan-19 07:00N 62°36' E 005°30'510.8
2018-Jan-19 06:30N 62°39' E 005°39'611.0
2018-Jan-19 05:59N 62°43' E 005°48'611.1
2018-Jan-19 05:30N 62°47' E 005°57'611.3
2018-Jan-19 04:59N 62°50' E 006°07'611.5
2018-Jan-19 04:29N 62°54' E 006°17'611.5
2018-Jan-19 04:00N 62°57' E 006°28'611.7
2018-Jan-19 03:30N 62°60' E 006°39'611.4
2018-Jan-19 03:00N 63°03' E 006°49'611.2
2018-Jan-19 02:30N 63°06' E 006°59'611.3
2018-Jan-19 01:59N 63°10' E 007°10'511.2
2018-Jan-19 01:29N 63°13' E 007°20'511.1
2018-Jan-19 01:00N 63°15' E 007°31'611.6
2018-Jan-19 00:30N 63°14' E 007°43'5 9.2
2018-Jan-19 00:00N 63°09' E 007°42'612.4
2018-Jan-18 23:30N 63°03' E 007°41'5 7.7
2018-Jan-18 22:52N 62°58' E 007°44'0 0.0
2018-Jan-18 22:22N 62°58' E 007°44'0 0.0
2018-Jan-18 21:58N 62°58' E 007°44'0 0.0
2018-Jan-18 21:28N 62°58' E 007°44'0 0.0
2018-Jan-18 20:58N 62°58' E 007°44'0 0.0
2018-Jan-18 20:28N 62°58' E 007°44'0 0.0
2018-Jan-18 19:55N 62°58' E 007°44'0 0.0
2018-Jan-18 19:25N 62°58' E 007°44'0 0.0
2018-Jan-18 18:58N 62°58' E 007°44'0 0.0
2018-Jan-18 18:28N 62°58' E 007°44'0 0.0
2018-Jan-18 17:58N 62°58' E 007°44'0 0.0
2018-Jan-18 17:28N 62°58' E 007°44'0 0.3
2018-Jan-18 17:00N 62°58' E 007°44'4 7.3
2018-Jan-18 16:30N 63°02' E 007°42'510.8
2018-Jan-18 16:01N 63°07' E 007°41'611.3
2018-Jan-18 15:30N 63°12' E 007°45'610.8
2018-Jan-18 15:00N 63°17' E 007°37'511.0
2018-Jan-18 14:30N 63°22' E 007°35'510.8
2018-Jan-18 14:00N 63°27' E 007°37'510.6
2018-Jan-18 13:30N 63°32' E 007°41'511.0
2018-Jan-18 13:00N 63°37' E 007°48'611.4
2018-Jan-18 12:30N 63°42' E 007°54'511.1
2018-Jan-18 12:00N 63°47' E 008°01'610.9
2018-Jan-18 11:30N 63°51' E 008°08'511.0
2018-Jan-18 11:00N 63°56' E 008°14'  
2018-Jan-12 15:00N 63°25' E 008°32'613.0
2018-Jan-12 14:30N 63°27' E 008°46'613.1
2018-Jan-12 14:00N 63°29' E 008°60'4 7.2
2018-Jan-12 13:30N 63°31' E 009°07'0 0.1
2018-Jan-12 12:59N 63°31' E 009°07'0 0.0
2018-Jan-12 12:02N 63°31' E 009°07'0 0.1
2018-Jan-12 11:59N 63°31' E 009°07'0 0.0
2018-Jan-12 11:29N 63°31' E 009°07'0 0.0
2018-Jan-12 10:59N 63°31' E 009°07'0 0.0
2018-Jan-12 10:29N 63°31' E 009°07'0 0.0
2018-Jan-12 10:00N 63°31' E 009°07'1 2.5
2018-Jan-12 09:29N 63°30' E 009°05'612.8
2018-Jan-12 09:00N 63°27' E 008°52'713.2
2018-Jan-12 08:29N 63°25' E 008°38'612.9
2018-Jan-12 08:00N 63°22' E 008°25'713.4
2018-Jan-12 07:30N 63°18' E 008°14'713.6
2018-Jan-12 07:00N 63°14' E 008°01'612.5
2018-Jan-12 06:30N 63°14' E 007°47'510.4
2018-Jan-12 06:00N 63°15' E 007°36'611.3
2018-Jan-12 05:28N 63°15' E 007°23'510.9
2018-Jan-12 05:00N 63°12' E 007°14'611.3
2018-Jan-12 04:30N 63°09' E 007°03'611.8
2018-Jan-12 04:00N 63°06' E 006°53'611.7
2018-Jan-12 03:30N 63°02' E 006°42'511.2
2018-Jan-12 03:00N 62°59' E 006°33'510.4
2018-Jan-12 02:30N 62°56' E 006°24'510.7
2018-Jan-12 02:00N 62°52' E 006°14'510.9
2018-Jan-12 01:30N 62°49' E 006°05'611.2
2018-Jan-12 01:00N 62°45' E 005°56'511.0
2018-Jan-12 00:30N 62°41' E 005°47'510.8
2018-Jan-12 00:00N 62°38' E 005°39'510.4
2018-Jan-11 23:30N 62°34' E 005°31'611.0
2018-Jan-11 23:00N 62°30' E 005°22'611.1
2018-Jan-11 22:30N 62°26' E 005°13'611.5
2018-Jan-11 22:00N 62°22' E 005°05'612.1
2018-Jan-11 21:30N 62°18' E 004°55'611.7
2018-Jan-11 21:00N 62°14' E 004°46'611.6
2018-Jan-11 20:29N 62°10' E 004°36'511.2
2018-Jan-11 20:00N 62°06' E 004°29'59912.5
2018-Jan-09 20:12N 52°07' E 003°55'314.3
2018-Jan-09 20:00N 52°05' E 003°56'510.8
2018-Jan-09 19:30N 52°00' E 004°01'611.8
2018-Jan-09 19:00N 51°58' E 004°09'611.2
2018-Jan-09 18:30N 51°54' E 004°17'5 9.4
2018-Jan-09 18:00N 51°54' E 004°24'1 1.9
2018-Jan-09 17:28N 51°54' E 004°26'0 0.0
2018-Jan-09 17:00N 51°54' E 004°26'0 0.0
2018-Jan-09 16:30N 51°54' E 004°26'0 0.0
2018-Jan-09 16:00N 51°54' E 004°26'0 0.1
2018-Jan-09 15:30N 51°54' E 004°26'1 2.2
2018-Jan-09 15:00N 51°54' E 004°24'1 1.3
2018-Jan-09 14:22N 51°53' E 004°25'0 0.0
2018-Jan-09 13:58N 51°53' E 004°25'0 0.0
2018-Jan-09 13:28N 51°53' E 004°25'0 0.0
2018-Jan-09 12:52N 51°53' E 004°25'0 0.0
2018-Jan-09 12:22N 51°53' E 004°25'0 0.0
2018-Jan-09 11:49N 51°53' E 004°25'0 0.0
2018-Jan-09 11:28N 51°53' E 004°25'0 0.0
2018-Jan-09 10:58N 51°53' E 004°25'  
Track history (hours):
 
Tides and Currents Weather Stations Pressure Air Temp Water Temp Dewpoint Dewpoint Depression Visibility Wind Speed Wind Dir Waves Ship Positions

Leandra

Last reported at 2018-Jan-19 10:31 UTC. Time now 2018-Jan-21 16:40 UTC.
Position N 62°10' E 004°28'.

Length 146 m; draft 7.6 m.

Type: Ship (hazmat cat A). MMSI: 305375000.

Date/timePositionNaut miles runAvg speedWind from/ knotsBaromVisibWave heightAir tempDewpointWater temp
2018-Jan-19 10:31N 62°10' E 004°28'010.9
2018-Jan-19 10:30N 62°11' E 004°28'510.6
2018-Jan-19 10:00N 62°14' E 004°37'510.8
2018-Jan-19 09:30N 62°17' E 004°46'511.0
2018-Jan-19 09:00N 62°21' E 004°55'510.5
2018-Jan-19 08:30N 62°25' E 005°03'511.1
2018-Jan-19 08:00N 62°28' E 005°12'611.2
2018-Jan-19 07:30N 62°32' E 005°22'611.2
2018-Jan-19 07:00N 62°36' E 005°30'510.8
2018-Jan-19 06:30N 62°39' E 005°39'611.0
2018-Jan-19 05:59N 62°43' E 005°48'611.1
2018-Jan-19 05:30N 62°47' E 005°57'611.3
2018-Jan-19 04:59N 62°50' E 006°07'611.5
2018-Jan-19 04:29N 62°54' E 006°17'611.5
2018-Jan-19 04:00N 62°57' E 006°28'611.7
2018-Jan-19 03:30N 62°60' E 006°39'611.4
2018-Jan-19 03:00N 63°03' E 006°49'611.2
2018-Jan-19 02:30N 63°06' E 006°59'611.3
2018-Jan-19 01:59N 63°10' E 007°10'511.2
2018-Jan-19 01:29N 63°13' E 007°20'511.1
2018-Jan-19 01:00N 63°15' E 007°31'611.6
2018-Jan-19 00:30N 63°14' E 007°43'5 9.2
2018-Jan-19 00:00N 63°09' E 007°42'612.4
2018-Jan-18 23:30N 63°03' E 007°41'5 7.7
2018-Jan-18 22:52N 62°58' E 007°44'0 0.0
2018-Jan-18 22:22N 62°58' E 007°44'0 0.0
2018-Jan-18 21:58N 62°58' E 007°44'0 0.0
2018-Jan-18 21:28N 62°58' E 007°44'0 0.0
2018-Jan-18 20:58N 62°58' E 007°44'0 0.0
2018-Jan-18 20:28N 62°58' E 007°44'0 0.0
2018-Jan-18 19:55N 62°58' E 007°44'0 0.0
2018-Jan-18 19:25N 62°58' E 007°44'0 0.0
2018-Jan-18 18:58N 62°58' E 007°44'0 0.0
2018-Jan-18 18:28N 62°58' E 007°44'0 0.0
2018-Jan-18 17:58N 62°58' E 007°44'0 0.0
2018-Jan-18 17:28N 62°58' E 007°44'0 0.3
2018-Jan-18 17:00N 62°58' E 007°44'4 7.3
2018-Jan-18 16:30N 63°02' E 007°42'510.8
2018-Jan-18 16:01N 63°07' E 007°41'611.3
2018-Jan-18 15:30N 63°12' E 007°45'610.8
2018-Jan-18 15:00N 63°17' E 007°37'511.0
2018-Jan-18 14:30N 63°22' E 007°35'510.8
2018-Jan-18 14:00N 63°27' E 007°37'510.6
2018-Jan-18 13:30N 63°32' E 007°41'511.0
2018-Jan-18 13:00N 63°37' E 007°48'611.4
2018-Jan-18 12:30N 63°42' E 007°54'511.1
2018-Jan-18 12:00N 63°47' E 008°01'610.9
2018-Jan-18 11:30N 63°51' E 008°08'511.0
2018-Jan-18 11:00N 63°56' E 008°14'  
2018-Jan-12 15:00N 63°25' E 008°32'613.0
2018-Jan-12 14:30N 63°27' E 008°46'613.1
2018-Jan-12 14:00N 63°29' E 008°60'4 7.2
2018-Jan-12 13:30N 63°31' E 009°07'0 0.1
2018-Jan-12 12:59N 63°31' E 009°07'0 0.0
2018-Jan-12 12:02N 63°31' E 009°07'0 0.1
2018-Jan-12 11:59N 63°31' E 009°07'0 0.0
2018-Jan-12 11:29N 63°31' E 009°07'0 0.0
2018-Jan-12 10:59N 63°31' E 009°07'0 0.0
2018-Jan-12 10:29N 63°31' E 009°07'0 0.0
2018-Jan-12 10:00N 63°31' E 009°07'1 2.5
2018-Jan-12 09:29N 63°30' E 009°05'612.8
2018-Jan-12 09:00N 63°27' E 008°52'713.2
2018-Jan-12 08:29N 63°25' E 008°38'612.9
2018-Jan-12 08:00N 63°22' E 008°25'713.4
2018-Jan-12 07:30N 63°18' E 008°14'713.6
2018-Jan-12 07:00N 63°14' E 008°01'612.5
2018-Jan-12 06:30N 63°14' E 007°47'510.4
2018-Jan-12 06:00N 63°15' E 007°36'611.3
2018-Jan-12 05:28N 63°15' E 007°23'510.9
2018-Jan-12 05:00N 63°12' E 007°14'611.3
2018-Jan-12 04:30N 63°09' E 007°03'611.8
2018-Jan-12 04:00N 63°06' E 006°53'611.7
2018-Jan-12 03:30N 63°02' E 006°42'511.2
2018-Jan-12 03:00N 62°59' E 006°33'510.4
2018-Jan-12 02:30N 62°56' E 006°24'510.7
2018-Jan-12 02:00N 62°52' E 006°14'510.9
2018-Jan-12 01:30N 62°49' E 006°05'611.2
2018-Jan-12 01:00N 62°45' E 005°56'511.0
2018-Jan-12 00:30N 62°41' E 005°47'510.8
2018-Jan-12 00:00N 62°38' E 005°39'510.4
2018-Jan-11 23:30N 62°34' E 005°31'611.0
2018-Jan-11 23:00N 62°30' E 005°22'611.1
2018-Jan-11 22:30N 62°26' E 005°13'611.5
2018-Jan-11 22:00N 62°22' E 005°05'612.1
2018-Jan-11 21:30N 62°18' E 004°55'611.7
2018-Jan-11 21:00N 62°14' E 004°46'611.6
2018-Jan-11 20:29N 62°10' E 004°36'511.2
2018-Jan-11 20:00N 62°06' E 004°29'59912.5
2018-Jan-09 20:12N 52°07' E 003°55'314.3
2018-Jan-09 20:00N 52°05' E 003°56'510.8
2018-Jan-09 19:30N 52°00' E 004°01'611.8
2018-Jan-09 19:00N 51°58' E 004°09'611.2
2018-Jan-09 18:30N 51°54' E 004°17'5 9.4
2018-Jan-09 18:00N 51°54' E 004°24'1 1.9
2018-Jan-09 17:28N 51°54' E 004°26'0 0.0
2018-Jan-09 17:00N 51°54' E 004°26'0 0.0
2018-Jan-09 16:30N 51°54' E 004°26'0 0.0
2018-Jan-09 16:00N 51°54' E 004°26'0 0.1
2018-Jan-09 15:30N 51°54' E 004°26'1 2.2
2018-Jan-09 15:00N 51°54' E 004°24'1 1.3
2018-Jan-09 14:22N 51°53' E 004°25'0 0.0
2018-Jan-09 13:58N 51°53' E 004°25'0 0.0
2018-Jan-09 13:28N 51°53' E 004°25'0 0.0
2018-Jan-09 12:52N 51°53' E 004°25'0 0.0
2018-Jan-09 12:22N 51°53' E 004°25'0 0.0
2018-Jan-09 11:49N 51°53' E 004°25'0 0.0
2018-Jan-09 11:28N 51°53' E 004°25'0 0.0
2018-Jan-09 10:58N 51°53' E 004°25'  

Dump ship's entire track history